Time;durP1;ratioP1;P1;durP2;ratioP2;P2;SDS_P1;SDS_P2;PMS_P1;PMS_P2;Temp;Humidity;BMP_temperature;BMP_pressure;BME280_temperature;BME280_humidity;BME280_pressure;Samples;Min_cycle;Max_cycle;Signal;HPM_P1;HPM_P2
2022/07/01 00:02:04;;;;;;;47.15;33.53;;;;;;;;;;4392598;32;20393;-72
2022/07/01 00:04:30;;;;;;;46.50;34.03;;;;;;;;;;4392193;32;20125;-73
2022/07/01 00:06:55;;;;;;;46.83;33.22;;;;;;;;;;4393425;32;20026;-72
2022/07/01 00:09:21;;;;;;;47.97;34.38;;;;;;;;;;4392982;32;20027;-73
2022/07/01 00:11:46;;;;;;;47.08;34.40;;;;;;;;;;4393098;32;20076;-73
2022/07/01 00:14:11;;;;;;;48.38;35.78;;;;;;;;;;4393009;32;20022;-73
2022/07/01 00:16:37;;;;;;;52.65;36.13;;;;;;;;;;4393320;32;20423;-73
2022/07/01 00:19:03;;;;;;;49.75;35.15;;;;;;;;;;4392671;32;20027;-73
2022/07/01 00:21:28;;;;;;;50.33;35.75;;;;;;;;;;4392672;32;20403;-73
2022/07/01 00:23:53;;;;;;;49.28;35.47;;;;;;;;;;4393224;32;20314;-72
2022/07/01 00:26:18;;;;;;;47.07;34.37;;;;;;;;;;4377428;32;20049;-73
2022/07/01 00:28:43;;;;;;;43.22;34.13;;;;;;;;;;4390989;32;20465;-73
2022/07/01 00:31:08;;;;;;;50.03;36.47;;;;;;;;;;4392934;32;20034;-73
2022/07/01 00:33:34;;;;;;;48.83;35.67;;;;;;;;;;4391601;32;20023;-73
2022/07/01 00:35:59;;;;;;;51.47;37.10;;;;;;;;;;4391708;32;20409;-74
2022/07/01 00:38:24;;;;;;;55.03;38.00;;;;;;;;;;4400804;27;20034;-78
2022/07/01 00:40:54;;;;;;;53.13;37.53;;;;;;;;;;4372606;32;20145;-78
2022/07/01 00:43:22;;;;;;;50.78;35.20;;;;;;;;;;4377111;32;20026;-78
2022/07/01 00:45:48;;;;;;;46.45;34.17;;;;;;;;;;4379597;32;20091;-77
2022/07/01 00:48:14;;;;;;;50.88;36.72;;;;;;;;;;4375683;32;20345;-77
2022/07/01 00:50:39;;;;;;;51.53;36.58;;;;;;;;;;4376387;32;20026;-77
2022/07/01 00:53:04;;;;;;;65.40;38.00;;;;;;;;;;4376889;32;20404;-77
2022/07/01 00:55:30;;;;;;;56.00;36.63;;;;;;;;;;4376058;32;20069;-77
2022/07/01 00:57:55;;;;;;;56.45;37.45;;;;;;;;;;4375474;32;20330;-79
2022/07/01 01:00:22;;;;;;;;;;;;;;;;;;4376762;32;20105;-79
2022/07/01 01:02:47;;;;;;;54.47;36.88;;;;;;;;;;4361986;32;20350;-78
2022/07/01 01:05:13;;;;;;;;;;;;;;;;;;4362518;32;20055;-79
2022/07/01 01:07:38;;;;;;;57.62;37.90;;;;;;;;;;4375514;32;19962;-79
2022/07/01 01:10:04;;;;;;;59.90;38.28;;;;;;;;;;4375465;32;20035;-78
2022/07/01 01:12:29;;;;;;;60.63;39.25;;;;;;;;;;4361845;32;20050;-78
2022/07/01 01:14:56;;;;;;;54.35;37.53;;;;;;;;;;4376128;32;20053;-78
2022/07/01 01:17:22;;;;;;;58.40;39.28;;;;;;;;;;4361607;32;20380;-77
2022/07/01 01:19:48;;;;;;;60.90;38.20;;;;;;;;;;4361672;32;20082;-78
2022/07/01 01:22:19;;;;;;;56.70;37.88;;;;;;;;;;4375714;32;20092;-78
2022/07/01 01:24:45;;;;;;;55.12;36.60;;;;;;;;;;4361504;32;20061;-77
2022/07/01 01:27:11;;;;;;;55.90;37.22;;;;;;;;;;4374894;32;20034;-78
2022/07/01 01:29:36;;;;;;;60.40;38.95;;;;;;;;;;4375751;32;20311;-78
2022/07/01 01:32:06;;;;;;;54.13;37.05;;;;;;;;;;4361576;32;20027;-78
2022/07/01 01:34:36;;;;;;;55.60;37.30;;;;;;;;;;4375090;32;20026;-78
2022/07/01 01:37:02;;;;;;;50.72;36.17;;;;;;;;;;4375061;32;20077;-78
2022/07/01 01:39:28;;;;;;;59.85;36.72;;;;;;;;;;4386796;32;20035;-78
2022/07/01 01:41:53;;;;;;;61.70;39.72;;;;;;;;;;4390899;32;20057;-78
2022/07/01 01:44:18;;;;;;;58.90;38.00;;;;;;;;;;4391829;32;20030;-78
2022/07/01 01:46:44;;;;;;;59.17;39.38;;;;;;;;;;4371566;32;20451;-78
2022/07/01 01:49:10;;;;;;;60.30;40.95;;;;;;;;;;4375104;32;20066;-78
2022/07/01 01:51:35;;;;;;;54.65;37.78;;;;;;;;;;4375018;32;20040;-78
2022/07/01 01:54:00;;;;;;;64.18;41.10;;;;;;;;;;4375711;32;20462;-78
2022/07/01 01:56:26;;;;;;;56.78;39.53;;;;;;;;;;4375272;32;20027;-78
2022/07/01 01:58:51;;;;;;;58.30;39.03;;;;;;;;;;4375858;32;20028;-78
2022/07/01 02:01:16;;;;;;;;;;;;;;;;;;4376342;32;20065;-78
2022/07/01 02:03:43;;;;;;;63.42;38.88;;;;;;;;;;4375310;32;19939;-78
2022/07/01 02:06:09;;;;;;;68.75;39.83;;;;;;;;;;4361516;32;20123;-79
2022/07/01 02:08:34;;;;;;;67.37;40.95;;;;;;;;;;4375266;32;20034;-79
2022/07/01 02:11:00;;;;;;;66.10;38.63;;;;;;;;;;4375955;32;20069;-79
2022/07/01 02:13:25;;;;;;;66.78;40.08;;;;;;;;;;4374905;32;20031;-79
2022/07/01 02:15:50;;;;;;;57.85;38.65;;;;;;;;;;4374857;32;20019;-79
2022/07/01 02:18:16;;;;;;;65.55;38.83;;;;;;;;;;4375153;32;20023;-79
2022/07/01 02:20:42;;;;;;;66.97;38.83;;;;;;;;;;4361868;32;20069;-79
2022/07/01 02:23:07;;;;;;;;;;;;;;;;;;4375138;32;20380;-78
2022/07/01 02:25:33;;;;;;;63.05;39.10;;;;;;;;;;4375566;32;19945;-79
2022/07/01 02:27:58;;;;;;;66.90;37.83;;;;;;;;;;4374948;32;20127;-78
2022/07/01 02:30:24;;;;;;;61.25;36.65;;;;;;;;;;4375045;32;20035;-78
2022/07/01 02:32:49;;;;;;;58.63;37.30;;;;;;;;;;4376692;32;20110;-78
2022/07/01 02:35:14;;;;;;;60.20;38.20;;;;;;;;;;4376343;32;20023;-79
2022/07/01 02:37:39;;;;;;;61.28;38.30;;;;;;;;;;4389848;32;20058;-78
2022/07/01 02:40:05;;;;;;;60.38;36.45;;;;;;;;;;4389926;32;20059;-78
2022/07/01 02:42:34;;;;;;;66.00;38.75;;;;;;;;;;4389991;32;20030;-79
2022/07/01 02:45:00;;;;;;;65.85;39.95;;;;;;;;;;4390108;32;20405;-79
2022/07/01 02:47:30;;;;;;;64.47;40.67;;;;;;;;;;4389604;32;20065;-79
2022/07/01 02:49:56;;;;;;;66.55;39.80;;;;;;;;;;4388970;32;20045;-79
2022/07/01 02:52:21;;;;;;;71.65;40.72;;;;;;;;;;4389708;32;20034;-79
2022/07/01 02:54:46;;;;;;;71.03;40.58;;;;;;;;;;4390342;32;20026;-79
2022/07/01 02:57:12;;;;;;;69.07;39.50;;;;;;;;;;4376109;32;20023;-79
2022/07/01 02:59:37;;;;;;;70.15;39.03;;;;;;;;;;4391046;32;20031;-79
2022/07/01 03:02:03;;;;;;;66.53;39.15;;;;;;;;;;4393170;32;20111;-79
2022/07/01 03:04:28;;;;;;;;;;;;;;;;;;4387710;32;20023;-79
2022/07/01 03:06:53;;;;;;;70.63;38.73;;;;;;;;;;4377209;32;19970;-79
2022/07/01 03:09:18;;;;;;;71.15;41.33;;;;;;;;;;4378118;32;20418;-79
2022/07/01 03:11:43;;;;;;;;;;;;;;;;;;4377487;32;20027;-79
2022/07/01 03:14:09;;;;;;;74.28;40.25;;;;;;;;;;4378416;32;20290;-79
2022/07/01 03:16:34;;;;;;;69.05;40.33;;;;;;;;;;4377521;32;20056;-78
2022/07/01 03:19:01;;;;;;;68.68;41.10;;;;;;;;;;4377696;32;20062;-79
2022/07/01 03:21:26;;;;;;;65.65;39.78;;;;;;;;;;4377921;32;20049;-78
2022/07/01 03:23:52;;;;;;;64.47;39.00;;;;;;;;;;4364222;32;20026;-79
2022/07/01 03:26:17;;;;;;;74.53;40.92;;;;;;;;;;4378072;32;20443;-79
2022/07/01 03:28:43;;;;;;;63.33;39.33;;;;;;;;;;4376810;32;20495;-79
2022/07/01 03:31:08;;;;;;;64.40;38.75;;;;;;;;;;4377194;32;20111;-79
2022/07/01 03:33:33;;;;;;;66.62;40.17;;;;;;;;;;4376802;32;20047;-79
2022/07/01 03:35:58;;;;;;;66.85;38.13;;;;;;;;;;4377233;32;20353;-79
2022/07/01 03:38:24;;;;;;;71.53;40.58;;;;;;;;;;4376762;32;20050;-78
2022/07/01 03:40:49;;;;;;;;;;;;;;;;;;4377635;32;20062;-79
2022/07/01 03:43:14;;;;;;;63.83;37.87;;;;;;;;;;4377110;32;19986;-78
2022/07/01 03:45:40;;;;;;;62.78;37.20;;;;;;;;;;4376841;32;20127;-78
2022/07/01 03:48:05;;;;;;;66.87;37.20;;;;;;;;;;4376463;32;20384;-78
2022/07/01 03:50:31;;;;;;;63.95;35.97;;;;;;;;;;4377153;32;20018;-79
2022/07/01 03:55:40;;;;;;;54.65;32.75;;;;;;;;;;4376855;32;20066;-78
2022/07/01 03:58:06;;;;;;;57.30;34.50;;;;;;;;;;4376391;32;20405;-78
2022/07/01 04:00:33;;;;;;;58.53;33.55;;;;;;;;;;4376866;32;20051;-78
2022/07/01 04:02:59;;;;;;;46.30;30.45;;;;;;;;;;4376605;32;20416;-77
2022/07/01 04:05:24;;;;;;;;;;;;;;;;;;4376687;32;20049;-77
2022/07/01 04:07:49;;;;;;;43.33;27.15;;;;;;;;;;4376119;32;20380;-77
2022/07/01 04:10:15;;;;;;;43.25;26.35;;;;;;;;;;4376301;32;20053;-77
2022/07/01 04:12:40;;;;;;;39.03;24.80;;;;;;;;;;4377902;32;20039;-77
2022/07/01 04:15:05;;;;;;;;;;;;;;;;;;4376245;32;20023;-76
2022/07/01 04:17:31;;;;;;;37.60;24.75;;;;;;;;;;4376546;32;20347;-78
2022/07/01 04:19:56;;;;;;;42.78;26.33;;;;;;;;;;4376082;32;20050;-78
2022/07/01 04:22:35;;;;;;;41.58;24.77;;;;;;;;;;4376935;32;20035;-78
2022/07/01 04:25:03;;;;;;;38.13;24.37;;;;;;;;;;4376120;32;20384;-77
2022/07/01 04:27:28;;;;;;;34.33;21.23;;;;;;;;;;4376532;32;20031;-76
2022/07/01 04:29:54;;;;;;;32.03;22.52;;;;;;;;;;4362582;32;20073;-76
2022/07/01 04:32:19;;;;;;;31.92;20.55;;;;;;;;;;4376362;32;20053;-76
2022/07/01 04:34:44;;;;;;;;;;;;;;;;;;4389591;32;20091;-77
2022/07/01 04:37:10;;;;;;;34.50;20.48;;;;;;;;;;4390883;32;19941;-76
2022/07/01 04:39:35;;;;;;;35.33;20.67;;;;;;;;;;4376940;32;20057;-77
2022/07/01 04:42:01;;;;;;;30.85;19.65;;;;;;;;;;4390812;32;20412;-77
2022/07/01 04:44:27;;;;;;;29.40;19.83;;;;;;;;;;4391262;32;20458;-77
2022/07/01 04:46:52;;;;;;;26.77;18.35;;;;;;;;;;4389962;32;20088;-78
2022/07/01 04:49:17;;;;;;;27.10;17.58;;;;;;;;;;4392253;32;20061;-77
2022/07/01 04:51:43;;;;;;;29.37;16.67;;;;;;;;;;4391161;32;20421;-77
2022/07/01 04:54:08;;;;;;;21.67;15.88;;;;;;;;;;4391399;32;20087;-76
2022/07/01 04:56:36;;;;;;;34.72;16.65;;;;;;;;;;4392256;32;20359;-78
2022/07/01 04:59:02;;;;;;;26.48;15.65;;;;;;;;;;4391042;32;20030;-77
2022/07/01 05:01:28;;;;;;;21.12;13.75;;;;;;;;;;4390626;32;20022;-77
2022/07/01 05:03:53;;;;;;;22.42;12.82;;;;;;;;;;4390753;32;20084;-77
2022/07/01 05:06:19;;;;;;;21.75;12.52;;;;;;;;;;4376992;32;20030;-77
2022/07/01 05:08:44;;;;;;;21.25;13.20;;;;;;;;;;4376645;32;20031;-77
2022/07/01 05:11:09;;;;;;;20.98;13.62;;;;;;;;;;4390822;32;20042;-76
2022/07/01 05:13:35;;;;;;;23.48;12.30;;;;;;;;;;4391106;32;20454;-76
2022/07/01 05:16:00;;;;;;;22.42;13.48;;;;;;;;;;4376583;32;20041;-75
2022/07/01 05:23:57;;;;;;;19.77;12.27;;;;;;;;;;4390958;32;20045;-76
2022/07/01 05:26:24;;;;;;;20.92;12.10;;;;;;;;;;4390534;32;20038;-77
2022/07/01 05:28:50;;;;;;;21.20;11.63;;;;;;;;;;4390457;32;20310;-76
2022/07/01 05:31:15;;;;;;;20.60;11.05;;;;;;;;;;4390626;32;20057;-75
2022/07/01 05:33:41;;;;;;;18.27;10.35;;;;;;;;;;4383201;32;20086;-75
2022/07/01 05:36:06;;;;;;;20.70;10.80;;;;;;;;;;4374957;32;20053;-78
2022/07/01 05:38:32;;;;;;;18.92;10.85;;;;;;;;;;4374739;32;20061;-77
2022/07/01 05:40:57;;;;;;;26.40;10.77;;;;;;;;;;4376783;32;20023;-77
2022/07/01 05:43:22;;;;;;;18.92;8.90;;;;;;;;;;4375594;32;20049;-78
2022/07/01 05:45:47;;;;;;;11.82;7.97;;;;;;;;;;4376584;32;20027;-78
2022/07/01 05:48:13;;;;;;;24.40;10.98;;;;;;;;;;4374978;32;20059;-77
2022/07/01 05:50:41;;;;;;;15.25;9.65;;;;;;;;;;4373154;32;20036;-79
2022/07/01 05:53:07;;;;;;;19.65;9.38;;;;;;;;;;4367031;32;20070;-77
2022/07/01 05:55:37;;;;;;;20.77;7.68;;;;;;;;;;4349461;32;20433;-73
2022/07/01 05:58:06;;;;;;;24.50;7.18;;;;;;;;;;4366749;32;20039;-75
2022/07/01 06:00:31;;;;;;;19.83;9.05;;;;;;;;;;4391038;32;20057;-73
2022/07/01 06:02:56;;;;;;;16.55;7.25;;;;;;;;;;4389128;32;20034;-77
2022/07/01 06:05:22;;;;;;;21.12;7.60;;;;;;;;;;4390805;32;20065;-77
2022/07/01 06:07:47;;;;;;;18.62;7.57;;;;;;;;;;4374890;32;20124;-75
2022/07/01 06:10:12;;;;;;;17.87;8.63;;;;;;;;;;4380019;32;20487;-71
2022/07/01 06:12:38;;;;;;;19.83;7.60;;;;;;;;;;4374340;32;20023;-73
2022/07/01 06:15:04;;;;;;;19.60;7.32;;;;;;;;;;4360544;32;20093;-73
2022/07/01 06:17:29;;;;;;;17.12;8.73;;;;;;;;;;4360919;32;20089;-73
2022/07/01 06:19:54;;;;;;;14.07;7.43;;;;;;;;;;4375561;32;20023;-67
2022/07/01 06:22:20;;;;;;;18.85;7.70;;;;;;;;;;4368163;32;20035;-72
2022/07/01 06:24:46;;;;;;;19.95;8.00;;;;;;;;;;4363449;32;20052;-72
2022/07/01 06:27:11;;;;;;;16.33;7.78;;;;;;;;;;4359033;33;20119;-70
2022/07/01 06:29:36;;;;;;;15.07;7.47;;;;;;;;;;4366248;32;20070;-72
2022/07/01 06:32:02;;;;;;;22.60;7.82;;;;;;;;;;4360023;32;20065;-70
2022/07/01 06:34:27;;;;;;;18.90;7.50;;;;;;;;;;4370941;32;20061;-73
2022/07/01 06:36:53;;;;;;;20.58;8.15;;;;;;;;;;4362575;33;20063;-73
2022/07/01 06:39:18;;;;;;;22.62;8.65;;;;;;;;;;4362025;32;20044;-68
2022/07/01 06:41:43;;;;;;;15.80;6.90;;;;;;;;;;4373027;32;20095;-73
2022/07/01 06:44:09;;;;;;;20.27;7.18;;;;;;;;;;4376232;32;20038;-72
2022/07/01 06:46:34;;;;;;;17.05;7.65;;;;;;;;;;4377470;32;20026;-74
2022/07/01 06:49:00;;;;;;;18.73;6.35;;;;;;;;;;4378149;32;20076;-71
2022/07/01 06:51:25;;;;;;;14.68;5.90;;;;;;;;;;4377489;32;20049;-73
2022/07/01 06:53:50;;;;;;;17.20;5.70;;;;;;;;;;4377300;32;20326;-72
2022/07/01 06:56:16;;;;;;;21.27;7.03;;;;;;;;;;4378537;32;20023;-72
2022/07/01 06:58:42;;;;;;;15.57;5.95;;;;;;;;;;4375764;32;20026;-68
2022/07/01 07:01:07;;;;;;;12.65;5.18;;;;;;;;;;4375976;32;20061;-72
2022/07/01 07:03:32;;;;;;;15.35;4.97;;;;;;;;;;4366319;32;20046;-70
2022/07/01 07:06:01;;;;;;;14.25;4.53;;;;;;;;;;4372145;32;20023;-74
2022/07/01 07:08:26;;;;;;;13.85;4.25;;;;;;;;;;4377316;32;20039;-73
2022/07/01 07:10:52;;;;;;;17.52;4.78;;;;;;;;;;4377729;32;20368;-72
2022/07/01 07:13:17;;;;;;;14.35;4.30;;;;;;;;;;4377048;32;20019;-74
2022/07/01 07:15:42;;;;;;;14.27;4.85;;;;;;;;;;4375071;32;20027;-69
2022/07/01 07:18:07;;;;;;;13.98;3.47;;;;;;;;;;4373894;32;20023;-73
2022/07/01 07:20:33;;;;;;;17.27;5.95;;;;;;;;;;4361912;32;20112;-72
2022/07/01 07:22:58;;;;;;;8.13;3.45;;;;;;;;;;4362248;32;20088;-72
2022/07/01 07:25:24;;;;;;;16.75;4.12;;;;;;;;;;4362215;32;20050;-72
2022/07/01 07:27:49;;;;;;;11.12;3.58;;;;;;;;;;4364324;32;20039;-73
2022/07/01 07:30:15;;;;;;;15.95;4.22;;;;;;;;;;4363497;32;20053;-70
2022/07/01 07:32:40;;;;;;;10.23;3.45;;;;;;;;;;4361475;33;20364;-73
2022/07/01 07:35:06;;;;;;;10.60;3.42;;;;;;;;;;4375634;32;20059;-72
2022/07/01 07:37:32;;;;;;;11.80;3.87;;;;;;;;;;4380962;32;20061;-73
2022/07/01 07:39:57;;;;;;;14.07;4.35;;;;;;;;;;4376191;32;20042;-74
2022/07/01 07:42:23;;;;;;;14.38;4.30;;;;;;;;;;4363578;32;20069;-72
2022/07/01 07:44:50;;;;;;;11.35;3.53;;;;;;;;;;4376808;32;20306;-73
2022/07/01 07:47:16;;;;;;;14.18;3.65;;;;;;;;;;4368188;32;20023;-71
2022/07/01 07:49:41;;;;;;;16.35;3.55;;;;;;;;;;4391493;32;20053;-73
2022/07/01 07:52:06;;;;;;;12.37;4.78;;;;;;;;;;4382659;32;20111;-72
2022/07/01 07:54:31;;;;;;;13.15;2.58;;;;;;;;;;4386767;32;20043;-72
2022/07/01 07:56:57;;;;;;;6.65;1.60;;;;;;;;;;4392782;32;20052;-69
2022/07/01 07:59:22;;;;;;;10.52;1.87;;;;;;;;;;4391325;32;20072;-70
2022/07/01 08:01:48;;;;;;;10.38;2.05;;;;;;;;;;4391931;32;20018;-73
2022/07/01 08:04:13;;;;;;;11.32;2.15;;;;;;;;;;4382419;32;20369;-72
2022/07/01 08:06:41;;;;;;;12.23;3.87;;;;;;;;;;4375806;32;20050;-73
2022/07/01 08:09:06;;;;;;;7.05;2.10;;;;;;;;;;4374773;32;20027;-73
2022/07/01 08:11:32;;;;;;;14.25;2.70;;;;;;;;;;4377033;32;20023;-72
2022/07/01 08:13:57;;;;;;;7.18;2.40;;;;;;;;;;4375836;32;20050;-72
2022/07/01 08:16:22;;;;;;;9.95;2.47;;;;;;;;;;4376977;32;20061;-72
2022/07/01 08:18:48;;;;;;;5.22;1.67;;;;;;;;;;4375855;32;20026;-71
2022/07/01 08:21:13;;;;;;;6.00;2.10;;;;;;;;;;4376012;32;20489;-73
2022/07/01 08:23:38;;;;;;;6.87;1.37;;;;;;;;;;4375981;32;20393;-72
2022/07/01 08:26:03;;;;;;;7.72;2.10;;;;;;;;;;4375329;32;20093;-71
2022/07/01 08:28:30;;;;;;;7.62;2.03;;;;;;;;;;4376705;32;20039;-71
2022/07/01 08:30:55;;;;;;;10.55;2.05;;;;;;;;;;4376657;32;20031;-68
2022/07/01 08:33:20;;;;;;;6.70;2.08;;;;;;;;;;4375649;32;20447;-72
2022/07/01 08:35:46;;;;;;;10.32;2.30;;;;;;;;;;4374829;32;20027;-72
2022/07/01 08:38:12;;;;;;;11.40;2.62;;;;;;;;;;4373351;32;20031;-72
2022/07/01 08:40:38;;;;;;;6.90;1.75;;;;;;;;;;4358900;32;20101;-72
2022/07/01 08:43:05;;;;;;;7.60;2.30;;;;;;;;;;4361119;32;20490;-72
2022/07/01 08:45:32;;;;;;;4.45;1.95;;;;;;;;;;4347827;33;20398;-72
2022/07/01 08:48:00;;;;;;;8.02;1.77;;;;;;;;;;4361201;32;20030;-72
2022/07/01 08:50:26;;;;;;;10.30;2.05;;;;;;;;;;4360479;32;20018;-73
2022/07/01 08:52:52;;;;;;;15.80;2.58;;;;;;;;;;4360855;32;20042;-71
2022/07/01 08:55:21;;;;;;;8.85;2.30;;;;;;;;;;4361281;32;20381;-73
2022/07/01 08:57:47;;;;;;;9.40;2.58;;;;;;;;;;4360909;32;20052;-71
2022/07/01 09:00:12;;;;;;;18.10;3.05;;;;;;;;;;4361310;32;20376;-72
2022/07/01 09:02:58;;;;;;;9.52;2.10;;;;;;;;;;4359892;32;20467;-72
2022/07/01 09:05:24;;;;;;;13.57;3.75;;;;;;;;;;4349086;32;20028;-71
2022/07/01 09:07:54;;;;;;;11.35;2.25;;;;;;;;;;4354516;33;20034;-72
2022/07/01 09:10:19;;;;;;;8.93;2.85;;;;;;;;;;4361294;32;20023;-72
2022/07/01 09:12:45;;;;;;;6.10;2.17;;;;;;;;;;4361459;32;20057;-72
2022/07/01 09:15:26;;;;;;;9.55;2.17;;;;;;;;;;4360592;32;20093;-72
2022/07/01 09:17:53;;;;;;;6.85;2.40;;;;;;;;;;4361280;32;20031;-72
2022/07/01 09:20:25;;;;;;;6.32;2.08;;;;;;;;;;4361250;32;20023;-72
2022/07/01 09:22:57;;;;;;;6.45;1.75;;;;;;;;;;4361394;32;20057;-72
2022/07/01 09:25:26;;;;;;;10.35;2.58;;;;;;;;;;4361063;32;20095;-71
2022/07/01 09:28:02;;;;;;;9.82;2.42;;;;;;;;;;4360942;32;20035;-71
2022/07/01 09:30:28;;;;;;;7.03;1.50;;;;;;;;;;4360962;32;20061;-71
2022/07/01 09:33:06;;;;;;;8.48;1.85;;;;;;;;;;4346931;33;20090;-72
2022/07/01 09:35:31;;;;;;;3.53;1.33;;;;;;;;;;4360805;32;20092;-72
2022/07/01 09:37:57;;;;;;;8.65;1.95;;;;;;;;;;4360320;32;20406;-72
2022/07/01 09:40:22;;;;;;;5.95;1.70;;;;;;;;;;4359299;32;20042;-72
2022/07/01 09:42:48;;;;;;;6.25;1.83;;;;;;;;;;4376767;32;20030;-72
2022/07/01 09:45:13;;;;;;;7.28;1.50;;;;;;;;;;4375090;32;20043;-71
2022/07/01 09:47:47;;;;;;;8.80;1.92;;;;;;;;;;4374776;32;20047;-72
2022/07/01 09:50:16;;;;;;;5.97;1.90;;;;;;;;;;4375002;32;20046;-72
2022/07/01 09:52:41;;;;;;;6.45;1.65;;;;;;;;;;4375423;32;20030;-72
2022/07/01 09:55:07;;;;;;;8.65;2.35;;;;;;;;;;4376923;32;20069;-72
2022/07/01 09:57:32;;;;;;;10.25;2.25;;;;;;;;;;4361307;32;20410;-72
2022/07/01 09:59:58;;;;;;;5.80;1.87;;;;;;;;;;4375916;32;20027;-73
2022/07/01 10:02:24;;;;;;;7.40;1.70;;;;;;;;;;4376414;32;20475;-70
2022/07/01 10:04:52;;;;;;;8.02;1.65;;;;;;;;;;4374533;32;20023;-72
2022/07/01 10:07:34;;;;;;;6.70;2.08;;;;;;;;;;4375783;32;20100;-72
2022/07/01 10:10:22;;;;;;;7.20;2.20;;;;;;;;;;4378294;32;20026;-73
2022/07/01 10:12:50;;;;;;;5.60;1.60;;;;;;;;;;4379034;32;20053;-72
2022/07/01 10:15:17;;;;;;;8.15;2.03;;;;;;;;;;4378397;32;20108;-71
2022/07/01 10:17:45;;;;;;;6.70;1.75;;;;;;;;;;4378667;32;20066;-72
2022/07/01 10:20:18;;;;;;;3.58;1.40;;;;;;;;;;4364054;32;20031;-70
2022/07/01 10:22:43;;;;;;;9.23;2.20;;;;;;;;;;4377431;32;20038;-74
2022/07/01 10:25:28;;;;;;;4.90;1.40;;;;;;;;;;4375543;32;20028;-72
2022/07/01 10:28:12;;;;;;;5.18;1.73;;;;;;;;;;4374138;32;20122;-73
2022/07/01 10:30:47;;;;;;;5.43;2.00;;;;;;;;;;4377628;32;20358;-72
2022/07/01 10:33:25;;;;;;;6.57;1.58;;;;;;;;;;4371911;32;20054;-72
2022/07/01 10:35:51;;;;;;;7.68;1.52;;;;;;;;;;4372360;32;20037;-74
2022/07/01 10:38:16;;;;;;;5.45;1.55;;;;;;;;;;4376349;32;20085;-74
2022/07/01 10:40:46;;;;;;;3.92;1.30;;;;;;;;;;4377598;32;20451;-74
2022/07/01 10:43:14;;;;;;;5.25;1.20;;;;;;;;;;4367505;32;20023;-70
2022/07/01 10:45:46;;;;;;;6.15;1.73;;;;;;;;;;4368040;32;20074;-70
2022/07/01 10:48:19;;;;;;;5.87;2.05;;;;;;;;;;4377265;32;20319;-73
2022/07/01 10:50:45;;;;;;;5.78;1.85;;;;;;;;;;4359949;32;20210;-73
2022/07/01 10:53:11;;;;;;;3.65;1.40;;;;;;;;;;4373486;32;20085;-72
2022/07/01 10:55:40;;;;;;;4.60;1.50;;;;;;;;;;4376078;32;20372;-73
2022/07/01 10:58:05;;;;;;;5.28;1.83;;;;;;;;;;4372360;32;20057;-73
2022/07/01 11:00:32;;;;;;;4.37;1.42;;;;;;;;;;4378497;32;20031;-73
2022/07/01 11:03:30;;;;;;;4.80;1.40;;;;;;;;;;4376198;32;20376;-73
2022/07/01 11:05:55;;;;;;;4.62;1.40;;;;;;;;;;4363703;32;20073;-74
2022/07/01 11:08:21;;;;;;;6.37;1.40;;;;;;;;;;4377451;32;20097;-73
2022/07/01 11:10:49;;;;;;;3.65;1.30;;;;;;;;;;4378227;32;20319;-74
2022/07/01 11:13:15;;;;;;;6.43;1.70;;;;;;;;;;4374760;32;20030;-73
2022/07/01 11:15:40;;;;;;;8.85;1.62;;;;;;;;;;4362844;32;20386;-73
2022/07/01 11:18:06;;;;;;;4.93;1.30;;;;;;;;;;4362531;32;20023;-74
2022/07/01 11:20:32;;;;;;;4.45;1.33;;;;;;;;;;4362393;32;20050;-74
2022/07/01 11:22:57;;;;;;;4.95;1.60;;;;;;;;;;4369040;32;20349;-73
2022/07/01 11:25:23;;;;;;;6.22;1.33;;;;;;;;;;4360650;33;20022;-74
2022/07/01 11:27:49;;;;;;;3.95;1.30;;;;;;;;;;4363112;32;20035;-73
2022/07/01 11:30:16;;;;;;;5.75;1.75;;;;;;;;;;4362924;32;20121;-73
2022/07/01 11:32:43;;;;;;;5.28;1.27;;;;;;;;;;4362841;32;20027;-73
2022/07/01 11:40:55;;;;;;;6.18;1.42;;;;;;;;;;4378552;32;20142;-73
2022/07/01 11:43:25;;;;;;;3.60;1.25;;;;;;;;;;4374603;32;20026;-72
2022/07/01 11:45:51;;;;;;;4.93;1.45;;;;;;;;;;4375407;32;20038;-73
2022/07/01 11:48:32;;;;;;;5.28;2.00;;;;;;;;;;4377629;32;20454;-73
2022/07/01 11:50:58;;;;;;;5.22;1.58;;;;;;;;;;4376555;32;20193;-72
2022/07/01 11:53:24;;;;;;;4.93;1.85;;;;;;;;;;4377995;32;20508;-73
2022/07/01 11:55:49;;;;;;;5.12;1.33;;;;;;;;;;4388579;32;20080;-73
2022/07/01 11:58:14;;;;;;;4.97;1.48;;;;;;;;;;4375689;32;20425;-72
2022/07/01 12:00:40;;;;;;;11.43;2.40;;;;;;;;;;4391738;32;20080;-73
2022/07/01 12:03:07;;;;;;;7.82;2.08;;;;;;;;;;4379587;32;20114;-73
2022/07/01 12:05:32;;;;;;;8.15;2.90;;;;;;;;;;4361130;32;20065;-74
2022/07/01 12:07:58;;;;;;;23.15;8.73;;;;;;;;;;4360290;32;20027;-72
2022/07/01 12:10:26;;;;;;;14.13;2.97;;;;;;;;;;4370177;32;20516;-73
2022/07/01 12:12:51;;;;;;;13.00;2.70;;;;;;;;;;4373960;32;20069;-72
2022/07/01 12:15:16;;;;;;;7.20;2.20;;;;;;;;;;4374645;32;20075;-72
2022/07/01 12:17:42;;;;;;;8.77;2.80;;;;;;;;;;4375970;32;20031;-72
2022/07/01 12:20:10;;;;;;;4.95;2.10;;;;;;;;;;4377859;32;20031;-72
2022/07/01 12:22:35;;;;;;;2.55;1.50;;;;;;;;;;4377823;32;20022;-71
2022/07/01 12:25:09;;;;;;;4.85;2.10;;;;;;;;;;4377354;32;20023;-73
2022/07/01 12:27:35;;;;;;;6.78;2.00;;;;;;;;;;4375890;32;20060;-73
2022/07/01 12:30:00;;;;;;;8.88;2.30;;;;;;;;;;4375587;32;20031;-73
2022/07/01 12:32:27;;;;;;;3.72;1.90;;;;;;;;;;4377501;32;20027;-73
2022/07/01 12:34:53;;;;;;;5.85;1.58;;;;;;;;;;4362388;32;20031;-71
2022/07/01 12:37:20;;;;;;;8.02;1.83;;;;;;;;;;4375888;32;20020;-73
2022/07/01 12:39:50;;;;;;;6.70;1.62;;;;;;;;;;4362976;32;20035;-75
2022/07/01 12:42:22;;;;;;;4.30;1.65;;;;;;;;;;4375746;32;20106;-75
2022/07/01 12:44:48;;;;;;;7.22;1.48;;;;;;;;;;4375719;32;20302;-73
2022/07/01 12:47:20;;;;;;;2.33;1.30;;;;;;;;;;4375708;32;20097;-72
2022/07/01 12:49:45;;;;;;;4.80;1.60;;;;;;;;;;4375864;32;20099;-71
2022/07/01 12:52:25;;;;;;;4.32;1.45;;;;;;;;;;4375369;32;20027;-73
2022/07/01 12:54:50;;;;;;;3.28;1.40;;;;;;;;;;4377206;32;20030;-75
2022/07/01 12:57:15;;;;;;;7.90;1.75;;;;;;;;;;4375716;32;20042;-73
2022/07/01 12:59:41;;;;;;;7.47;1.50;;;;;;;;;;4375775;32;20027;-73
2022/07/01 13:02:06;;;;;;;4.47;1.50;;;;;;;;;;4376175;32;20132;-74
2022/07/01 13:04:32;;;;;;;5.22;2.12;;;;;;;;;;4376684;32;20031;-73
2022/07/01 13:06:57;;;;;;;6.20;1.65;;;;;;;;;;4361398;32;20084;-72
2022/07/01 13:09:22;;;;;;;5.72;2.45;;;;;;;;;;4375383;32;20030;-72
2022/07/01 13:11:48;;;;;;;6.62;2.80;;;;;;;;;;4375419;32;20389;-74
2022/07/01 13:14:14;;;;;;;6.70;1.75;;;;;;;;;;4375653;32;20088;-74
2022/07/01 13:16:39;;;;;;;7.25;2.15;;;;;;;;;;4361601;32;20428;-68
2022/07/01 13:19:04;;;;;;;3.83;1.83;;;;;;;;;;4374937;32;20073;-73
2022/07/01 13:21:29;;;;;;;2.62;1.33;;;;;;;;;;4375756;32;20064;-73
2022/07/01 13:23:55;;;;;;;4.50;2.17;;;;;;;;;;4375089;32;20385;-72
2022/07/01 13:26:20;;;;;;;6.57;1.87;;;;;;;;;;4376120;32;20102;-72
2022/07/01 13:28:49;;;;;;;7.72;2.00;;;;;;;;;;4375925;32;20393;-73
2022/07/01 13:31:14;;;;;;;4.78;2.10;;;;;;;;;;4375617;32;20134;-73
2022/07/01 13:33:39;;;;;;;4.18;1.80;;;;;;;;;;4375398;32;20370;-74
2022/07/01 13:36:05;;;;;;;6.75;2.08;;;;;;;;;;4374931;32;20081;-73
2022/07/01 13:38:30;;;;;;;6.47;2.55;;;;;;;;;;4374639;32;20106;-73
2022/07/01 13:40:55;;;;;;;4.40;1.98;;;;;;;;;;4375018;32;20047;-73
2022/07/01 13:43:21;;;;;;;8.27;1.70;;;;;;;;;;4376128;32;20022;-72
2022/07/01 13:45:46;;;;;;;5.87;1.55;;;;;;;;;;4374947;32;20142;-73
2022/07/01 13:48:11;;;;;;;3.40;1.50;;;;;;;;;;4374749;32;20027;-70
2022/07/01 13:50:37;;;;;;;5.80;1.80;;;;;;;;;;4375861;32;20091;-73
2022/07/01 13:53:02;;;;;;;5.35;1.48;;;;;;;;;;4375485;32;20057;-72
2022/07/01 13:55:28;;;;;;;4.53;1.90;;;;;;;;;;4375320;32;20089;-73
2022/07/01 13:57:53;;;;;;;6.65;1.80;;;;;;;;;;4375540;32;20027;-72
2022/07/01 14:00:18;;;;;;;2.95;1.70;;;;;;;;;;4374982;32;20065;-74
2022/07/01 14:02:44;;;;;;;5.72;1.60;;;;;;;;;;4375393;32;20129;-74
2022/07/01 14:05:09;;;;;;;4.68;1.90;;;;;;;;;;4375087;32;20085;-74
2022/07/01 14:07:34;;;;;;;3.35;1.30;;;;;;;;;;4376140;32;20077;-74
2022/07/01 14:10:01;;;;;;;7.32;1.95;;;;;;;;;;4376660;32;20022;-74
2022/07/01 14:12:26;;;;;;;3.30;1.67;;;;;;;;;;4375034;32;20030;-73
2022/07/01 14:14:53;;;;;;;6.70;3.00;;;;;;;;;;4374687;32;20057;-73
2022/07/01 14:17:18;;;;;;;4.68;1.80;;;;;;;;;;4375777;32;20027;-74
2022/07/01 14:19:44;;;;;;;6.85;1.40;;;;;;;;;;4375744;32;20050;-72
2022/07/01 14:22:09;;;;;;;4.10;1.33;;;;;;;;;;4374401;32;20411;-73
2022/07/01 14:24:34;;;;;;;5.20;1.58;;;;;;;;;;4374974;32;20073;-73
2022/07/01 14:27:00;;;;;;;3.97;2.03;;;;;;;;;;4374672;32;20049;-74
2022/07/01 14:29:25;;;;;;;3.58;1.58;;;;;;;;;;4375570;32;20031;-72
2022/07/01 14:31:50;;;;;;;5.97;1.70;;;;;;;;;;4375548;32;20358;-74
2022/07/01 14:34:16;;;;;;;4.43;1.73;;;;;;;;;;4375050;32;20059;-69
2022/07/01 14:36:44;;;;;;;4.93;1.83;;;;;;;;;;4374742;32;20066;-74
2022/07/01 14:39:10;;;;;;;5.10;2.20;;;;;;;;;;4375034;32;20050;-74
2022/07/01 14:41:35;;;;;;;4.85;1.75;;;;;;;;;;4375648;32;20381;-73
2022/07/01 14:44:00;;;;;;;7.10;2.33;;;;;;;;;;4374529;32;20027;-73